createdAt,value
2023-03-23T00:00:10.629Z,12.79
2023-03-23T00:01:11.326Z,12.79
2023-03-23T00:02:12.032Z,12.79
2023-03-23T00:03:12.735Z,12.81
2023-03-23T00:04:13.478Z,12.81
2023-03-23T00:05:14.206Z,12.81
2023-03-23T00:06:14.989Z,12.81
2023-03-23T00:07:15.700Z,12.80
2023-03-23T00:08:16.444Z,12.81
2023-03-23T00:09:17.462Z,12.81
2023-03-23T00:10:18.198Z,12.81
2023-03-23T00:11:18.914Z,12.81
2023-03-23T00:12:19.792Z,12.84
2023-03-23T00:13:20.783Z,12.81
2023-03-23T00:14:21.564Z,12.81
2023-03-23T00:15:22.294Z,12.84
2023-03-23T00:16:23.011Z,12.85
2023-03-23T00:17:23.977Z,12.85
2023-03-23T00:18:24.857Z,12.84
2023-03-23T00:19:26.771Z,12.88
2023-03-23T00:20:26.087Z,12.81
2023-03-23T00:21:26.795Z,12.85
2023-03-23T00:22:27.553Z,12.85
2023-03-23T00:23:28.247Z,12.84
2023-03-23T00:24:28.937Z,12.81
2023-03-23T00:25:29.670Z,12.88
2023-03-23T00:26:30.428Z,12.87
2023-03-23T00:27:31.414Z,12.81
2023-03-23T00:28:32.137Z,12.81
2023-03-23T00:29:32.857Z,12.81
2023-03-23T00:30:33.575Z,12.81
2023-03-23T00:31:34.290Z,12.80
2023-03-23T00:32:35.006Z,12.80
2023-03-23T00:33:36.020Z,12.84
2023-03-23T00:34:36.507Z,12.80
2023-03-23T00:35:37.240Z,12.81
2023-03-23T00:36:37.941Z,12.77
2023-03-23T00:37:38.787Z,12.79
2023-03-23T00:38:39.761Z,12.77
2023-03-23T00:39:40.464Z,12.77
2023-03-23T00:40:41.156Z,12.79
2023-03-23T00:41:42.110Z,12.80
2023-03-23T00:42:42.858Z,12.80
2023-03-23T00:43:43.685Z,12.79
2023-03-23T00:44:44.571Z,12.80
2023-03-23T00:45:45.259Z,12.77
2023-03-23T00:46:45.941Z,12.77
2023-03-23T00:47:46.757Z,12.80
2023-03-23T00:48:47.456Z,12.76
2023-03-23T00:49:48.181Z,12.79
2023-03-23T00:50:48.871Z,12.76
2023-03-23T00:51:49.576Z,12.77
2023-03-23T00:52:50.299Z,12.77
2023-03-23T00:53:51.008Z,12.77
2023-03-23T00:54:51.758Z,12.77
2023-03-23T00:55:52.485Z,12.77
2023-03-23T00:56:53.426Z,12.77
2023-03-23T00:57:54.151Z,12.76
2023-03-23T00:58:54.705Z,12.76
2023-03-23T00:59:55.440Z,12.76
2023-03-23T01:00:56.429Z,12.73
2023-03-23T01:01:57.418Z,12.76
2023-03-23T01:02:58.098Z,12.71
2023-03-23T01:03:58.828Z,12.71
2023-03-23T01:04:59.534Z,12.74
2023-03-23T01:06:00.271Z,12.73
2023-03-23T01:07:00.984Z,12.71
2023-03-23T01:08:01.700Z,12.70
2023-03-23T01:09:02.438Z,12.71
2023-03-23T01:10:03.138Z,12.73
2023-03-23T01:11:03.845Z,12.71
2023-03-23T01:12:04.572Z,12.73
2023-03-23T01:13:05.277Z,12.74
2023-03-23T01:14:06.088Z,12.71
2023-03-23T01:15:06.792Z,12.71
2023-03-23T01:16:07.659Z,12.76
2023-03-23T01:17:08.357Z,12.74
2023-03-23T01:18:09.077Z,12.71
2023-03-23T01:19:09.953Z,12.74
2023-03-23T01:20:10.757Z,12.76
2023-03-23T01:21:11.485Z,12.73
2023-03-23T01:22:12.190Z,12.73
2023-03-23T01:23:12.911Z,12.73
2023-03-23T01:24:13.610Z,12.74
2023-03-23T01:25:14.361Z,12.73
2023-03-23T01:26:15.124Z,12.77
2023-03-23T01:27:15.799Z,12.71
2023-03-23T01:28:16.507Z,12.76
2023-03-23T01:29:17.389Z,12.73
2023-03-23T01:30:18.095Z,12.76
2023-03-23T01:31:18.838Z,12.74
2023-03-23T01:32:19.519Z,12.74
2023-03-23T01:33:20.241Z,12.76
2023-03-23T01:34:20.970Z,12.74
2023-03-23T01:35:21.710Z,12.76
2023-03-23T01:36:22.435Z,12.79
2023-03-23T01:37:23.386Z,12.74
2023-03-23T01:38:24.107Z,12.76
2023-03-23T01:39:24.847Z,12.73
2023-03-23T01:40:25.567Z,12.73
2023-03-23T01:41:26.295Z,12.73
2023-03-23T01:42:27.016Z,12.74
2023-03-23T01:43:27.855Z,12.76
2023-03-23T01:44:28.561Z,12.73
2023-03-23T01:45:29.292Z,12.70
2023-03-23T01:46:29.997Z,12.74
2023-03-23T01:47:30.780Z,12.71
2023-03-23T01:48:31.496Z,12.70
2023-03-23T01:49:32.197Z,12.71
2023-03-23T01:50:32.918Z,12.73
2023-03-23T01:51:41.891Z,12.73
2023-03-23T01:52:34.656Z,12.71
2023-03-23T01:53:35.392Z,12.70
2023-03-23T01:54:36.090Z,12.70
2023-03-23T01:55:36.790Z,12.67
2023-03-23T01:56:37.481Z,12.67
2023-03-23T01:57:38.275Z,12.67
2023-03-23T01:58:39.020Z,12.66
2023-03-23T01:59:39.713Z,12.67
2023-03-23T02:00:40.579Z,12.69
2023-03-23T02:01:41.267Z,12.67
2023-03-23T02:02:42.191Z,12.63
2023-03-23T02:03:42.890Z,12.63
2023-03-23T02:04:43.587Z,12.63
2023-03-23T02:05:44.291Z,12.66
2023-03-23T02:06:45.035Z,12.63
2023-03-23T02:07:45.721Z,12.61
2023-03-23T02:08:46.281Z,12.62
2023-03-23T02:09:46.992Z,12.63
2023-03-23T02:10:51.600Z,12.61
2023-03-23T02:11:48.711Z,12.61
2023-03-23T02:12:49.409Z,12.56
2023-03-23T02:13:50.212Z,12.56
2023-03-23T02:14:50.878Z,12.52
2023-03-23T02:15:51.587Z,12.52
2023-03-23T02:16:52.469Z,12.56
2023-03-23T02:17:53.167Z,12.52
2023-03-23T02:18:53.917Z,12.51
2023-03-23T02:19:54.618Z,12.51
2023-03-23T02:20:55.344Z,12.51
2023-03-23T02:21:56.055Z,12.49
2023-03-23T02:22:56.758Z,12.48
2023-03-23T02:23:57.512Z,12.49
2023-03-23T02:24:58.232Z,12.49
2023-03-23T02:25:59.215Z,12.46
2023-03-23T02:27:00.150Z,12.46
2023-03-23T02:28:00.870Z,12.44
2023-03-23T02:29:01.622Z,12.46
2023-03-23T02:30:02.341Z,12.43
2023-03-23T02:31:03.063Z,12.41
2023-03-23T02:32:03.827Z,12.43
2023-03-23T02:33:04.529Z,12.41
2023-03-23T02:34:05.246Z,12.44
2023-03-23T02:35:06.248Z,12.40
2023-03-23T02:36:07.230Z,12.43
2023-03-23T02:37:07.939Z,12.38
2023-03-23T02:38:08.637Z,12.43
2023-03-23T02:39:09.373Z,12.38
2023-03-23T02:40:10.076Z,12.37
2023-03-23T02:41:10.803Z,12.37
2023-03-23T02:42:14.800Z,12.38
2023-03-23T02:43:12.268Z,12.37
2023-03-23T02:44:12.987Z,12.36
2023-03-23T02:45:13.723Z,12.37
2023-03-23T02:46:14.421Z,12.34
2023-03-23T02:47:15.439Z,12.34
2023-03-23T02:48:16.167Z,12.36
2023-03-23T02:49:17.107Z,12.33
2023-03-23T02:50:17.591Z,12.33
2023-03-23T02:51:18.311Z,12.30
2023-03-23T02:52:18.950Z,12.31
2023-03-23T02:53:19.901Z,12.30
2023-03-23T02:54:20.623Z,12.29
2023-03-23T02:55:21.380Z,12.29
2023-03-23T02:56:22.071Z,12.25
2023-03-23T02:57:22.860Z,12.21
2023-03-23T02:58:23.266Z,12.21
2023-03-23T02:59:23.990Z,12.23
2023-03-23T03:00:24.754Z,12.18
2023-03-23T03:01:25.445Z,12.15
2023-03-23T03:02:26.318Z,12.16
2023-03-23T03:03:27.149Z,12.13
2023-03-23T03:04:27.903Z,12.11
2023-03-23T03:05:28.658Z,12.12
2023-03-23T03:06:29.359Z,12.11
2023-03-23T03:07:29.943Z,12.07
2023-03-23T03:08:30.651Z,12.07
2023-03-23T03:09:31.371Z,12.07
2023-03-23T03:10:32.087Z,12.04
2023-03-23T03:11:32.900Z,12.00
2023-03-23T03:12:33.616Z,11.98
2023-03-23T03:13:34.553Z,11.98
2023-03-23T03:14:35.232Z,11.97
2023-03-23T03:15:35.999Z,11.98
2023-03-23T03:16:36.686Z,12.00
2023-03-23T03:17:37.368Z,11.97
2023-03-23T03:18:38.276Z,11.97
2023-03-23T03:19:38.983Z,11.96
2023-03-23T03:20:39.746Z,11.96
2023-03-23T03:21:40.348Z,11.88
2023-03-23T03:22:41.082Z,11.90
2023-03-23T03:23:41.795Z,11.93
2023-03-23T03:24:42.509Z,11.87
2023-03-23T03:25:43.492Z,11.88
2023-03-23T03:26:43.882Z,11.85
2023-03-23T03:27:44.634Z,11.88
2023-03-23T03:28:45.380Z,11.85
2023-03-23T03:29:46.225Z,11.87
2023-03-23T03:30:47.285Z,11.84
2023-03-23T03:31:48.000Z,11.85
2023-03-23T03:32:48.769Z,11.85
2023-03-23T03:33:49.463Z,11.84
2023-03-23T03:34:50.175Z,11.85
2023-03-23T03:35:50.916Z,11.82
2023-03-23T03:36:51.370Z,11.84
2023-03-23T03:37:52.077Z,11.84
2023-03-23T03:38:52.821Z,11.87
2023-03-23T03:39:53.529Z,11.85
2023-03-23T03:40:54.386Z,11.84
2023-03-23T03:41:55.084Z,11.87
2023-03-23T03:42:55.813Z,11.87
2023-03-23T03:43:56.529Z,11.87
2023-03-23T03:44:57.401Z,11.87
2023-03-23T03:45:58.323Z,11.85
2023-03-23T03:46:59.028Z,11.87
2023-03-23T03:47:59.748Z,11.84
2023-03-23T03:49:00.287Z,11.87
2023-03-23T03:50:00.969Z,11.87
2023-03-23T03:51:01.557Z,11.84
2023-03-23T03:52:02.272Z,11.88
2023-03-23T03:53:02.997Z,11.85
2023-03-23T03:54:03.737Z,11.84
2023-03-23T03:55:04.434Z,11.85
2023-03-23T03:56:05.161Z,11.84
2023-03-23T03:57:05.859Z,11.85
2023-03-23T03:58:06.560Z,11.87
2023-03-23T03:59:21.757Z,11.87
2023-03-23T04:00:08.433Z,11.87
2023-03-23T04:01:09.148Z,11.87
2023-03-23T04:02:09.812Z,11.84
2023-03-23T04:03:10.636Z,11.84
2023-03-23T04:04:11.345Z,11.87
2023-03-23T04:05:12.077Z,11.85
2023-03-23T04:06:12.907Z,11.85
2023-03-23T04:07:13.834Z,11.85
2023-03-23T04:08:14.531Z,11.88
2023-03-23T04:09:15.337Z,11.87
2023-03-23T04:10:16.076Z,11.87
2023-03-23T04:11:32.699Z,11.87
2023-03-23T04:12:18.026Z,11.85
2023-03-23T04:13:18.777Z,11.87
2023-03-23T04:14:19.511Z,11.87
2023-03-23T04:15:20.208Z,11.85
2023-03-23T04:16:20.928Z,11.85
2023-03-23T04:17:21.817Z,11.87
2023-03-23T04:18:22.735Z,11.88
2023-03-23T04:19:23.789Z,11.87
2023-03-23T04:20:31.511Z,11.87
2023-03-23T04:21:25.461Z,11.87
2023-03-23T04:22:26.239Z,11.87
2023-03-23T04:23:26.950Z,11.85
2023-03-23T04:24:55.832Z,11.88
2023-03-23T04:25:28.725Z,11.87
2023-03-23T04:26:29.397Z,11.88
2023-03-23T04:27:30.251Z,11.90
2023-03-23T04:28:31.028Z,11.88
2023-03-23T04:29:31.751Z,11.90
2023-03-23T04:30:32.443Z,11.90
2023-03-23T04:31:33.168Z,11.88
2023-03-23T04:32:34.046Z,11.88
2023-03-23T04:33:58.674Z,11.88
2023-03-23T04:34:36.033Z,11.87
2023-03-23T04:35:36.669Z,11.90
2023-03-23T04:36:57.084Z,11.88
2023-03-23T04:37:38.250Z,11.87
2023-03-23T04:38:38.946Z,11.85
2023-03-23T04:39:39.659Z,11.87
2023-03-23T04:40:40.461Z,11.87
2023-03-23T04:41:41.147Z,11.85
2023-03-23T04:42:41.878Z,11.85
2023-03-23T04:43:42.579Z,11.84
2023-03-23T04:44:43.297Z,11.84
2023-03-23T04:45:44.047Z,11.84
2023-03-23T04:46:44.747Z,11.85
2023-03-23T04:47:45.452Z,11.85
2023-03-23T04:48:46.206Z,11.84
2023-03-23T04:49:46.946Z,11.81
2023-03-23T04:50:47.608Z,11.84
2023-03-23T04:51:48.318Z,11.82
2023-03-23T04:52:49.200Z,11.82
2023-03-23T04:53:49.981Z,11.85
2023-03-23T04:54:50.681Z,11.84
2023-03-23T04:55:51.386Z,11.81
2023-03-23T04:56:52.081Z,11.82
2023-03-23T04:57:52.768Z,11.78
2023-03-23T04:58:53.525Z,11.81
2023-03-23T04:59:54.219Z,11.81
2023-03-23T05:00:54.912Z,11.82
2023-03-23T05:01:55.608Z,11.79
2023-03-23T05:02:56.600Z,11.79
2023-03-23T05:03:57.324Z,11.79
2023-03-23T05:04:59.424Z,11.79
2023-03-23T05:05:58.953Z,11.79
2023-03-23T05:06:59.662Z,11.78
2023-03-23T05:08:00.672Z,11.79
2023-03-23T05:09:01.403Z,11.79
2023-03-23T05:10:02.094Z,11.79
2023-03-23T05:11:02.790Z,11.78
2023-03-23T05:12:03.517Z,11.74
2023-03-23T05:13:04.209Z,11.77
2023-03-23T05:14:04.948Z,11.75
2023-03-23T05:15:05.647Z,11.77
2023-03-23T05:16:06.395Z,11.77
2023-03-23T05:17:07.081Z,11.77
2023-03-23T05:18:07.815Z,11.74
2023-03-23T05:19:08.528Z,11.75
2023-03-23T05:20:09.231Z,11.77
2023-03-23T05:21:09.941Z,11.75
2023-03-23T05:22:10.640Z,11.75
2023-03-23T05:23:11.372Z,11.75
2023-03-23T05:24:12.096Z,11.78
2023-03-23T05:25:12.801Z,11.75
2023-03-23T05:26:13.514Z,11.75
2023-03-23T05:27:14.204Z,11.77
2023-03-23T05:28:14.914Z,11.75
2023-03-23T05:29:15.636Z,11.75
2023-03-23T05:30:16.407Z,11.75
2023-03-23T05:31:17.071Z,11.77
2023-03-23T05:32:17.782Z,11.75
2023-03-23T05:33:18.486Z,11.75
2023-03-23T05:34:19.238Z,11.77
2023-03-23T05:35:19.940Z,11.74
2023-03-23T05:36:20.772Z,11.75
2023-03-23T05:37:31.084Z,11.72
2023-03-23T05:38:22.016Z,11.75
2023-03-23T05:39:22.588Z,11.74
2023-03-23T05:40:23.288Z,11.70
2023-03-23T05:41:24.022Z,11.72
2023-03-23T05:42:24.707Z,11.75
2023-03-23T05:43:25.409Z,11.72
2023-03-23T05:44:26.132Z,11.70
2023-03-23T05:45:26.836Z,11.74
2023-03-23T05:46:27.546Z,11.72
2023-03-23T05:47:28.329Z,11.72
2023-03-23T05:48:29.054Z,11.74
2023-03-23T05:49:29.775Z,11.72
2023-03-23T05:50:30.479Z,11.75
2023-03-23T05:51:31.192Z,11.74
2023-03-23T05:52:31.947Z,11.75
2023-03-23T05:53:32.638Z,11.77
2023-03-23T05:54:33.356Z,11.77
2023-03-23T05:55:34.064Z,11.77
2023-03-23T05:56:34.761Z,11.75
2023-03-23T05:57:35.490Z,11.75
2023-03-23T05:58:36.195Z,11.77
2023-03-23T05:59:36.912Z,11.78
2023-03-23T06:00:37.947Z,11.77
2023-03-23T06:01:38.664Z,11.78
2023-03-23T06:02:39.364Z,11.79
2023-03-23T06:03:40.591Z,11.79
2023-03-23T06:04:40.710Z,11.81
2023-03-23T06:05:41.771Z,11.82
2023-03-23T06:06:42.068Z,11.82
2023-03-23T06:07:42.772Z,11.82
2023-03-23T06:08:43.523Z,11.87
2023-03-23T06:09:44.229Z,11.87
2023-03-23T06:10:44.939Z,11.87
2023-03-23T06:11:45.652Z,11.88
2023-03-23T06:12:46.398Z,11.88
2023-03-23T06:13:47.115Z,11.94
2023-03-23T06:14:47.830Z,11.94
2023-03-23T06:15:48.606Z,11.94
2023-03-23T06:16:49.313Z,11.94
2023-03-23T06:17:50.020Z,11.94
2023-03-23T06:18:50.753Z,11.97
2023-03-23T06:19:51.444Z,11.94
2023-03-23T06:20:52.226Z,11.97
2023-03-23T06:21:52.933Z,11.97
2023-03-23T06:22:53.652Z,11.97
2023-03-23T06:23:54.369Z,11.97
2023-03-23T06:24:55.088Z,11.97
2023-03-23T06:25:55.796Z,11.97
2023-03-23T06:26:56.825Z,12.00
2023-03-23T06:27:57.513Z,11.97
2023-03-23T06:28:58.248Z,11.97
2023-03-23T06:29:58.976Z,11.98
2023-03-23T06:30:59.672Z,12.00
2023-03-23T06:32:00.374Z,12.01
2023-03-23T06:33:01.121Z,12.03
2023-03-23T06:34:01.833Z,12.04
2023-03-23T06:35:02.535Z,12.05
2023-03-23T06:36:03.304Z,12.04
2023-03-23T06:37:04.012Z,12.03
2023-03-23T06:38:04.698Z,12.05
2023-03-23T06:39:05.426Z,12.03
2023-03-23T06:40:06.149Z,12.05
2023-03-23T06:41:06.912Z,12.04
2023-03-23T06:42:07.653Z,12.05
2023-03-23T06:43:08.402Z,12.04
2023-03-23T06:44:09.120Z,12.05
2023-03-23T06:45:09.831Z,12.05
2023-03-23T06:46:10.519Z,12.04
2023-03-23T06:47:11.236Z,12.05
2023-03-23T06:48:11.950Z,12.03
2023-03-23T06:49:12.657Z,12.05
2023-03-23T06:50:13.360Z,12.05
2023-03-23T06:51:14.068Z,12.05
2023-03-23T06:52:14.769Z,12.08
2023-03-23T06:53:15.474Z,12.07
2023-03-23T06:54:16.199Z,12.07
2023-03-23T06:55:16.896Z,12.11
2023-03-23T06:56:17.600Z,12.12
2023-03-23T06:57:18.313Z,12.12
2023-03-23T06:58:19.020Z,12.13
2023-03-23T06:59:19.742Z,12.15
2023-03-23T07:00:20.490Z,12.15
2023-03-23T07:01:21.214Z,12.15
2023-03-23T07:02:21.949Z,12.18
2023-03-23T07:03:22.640Z,12.18
2023-03-23T07:04:23.351Z,12.21
2023-03-23T07:05:24.093Z,12.19
2023-03-23T07:06:24.843Z,12.22
2023-03-23T07:07:25.534Z,12.22
2023-03-23T07:08:26.258Z,12.22
2023-03-23T07:09:41.102Z,12.23
2023-03-23T07:10:27.968Z,12.22
2023-03-23T07:11:28.683Z,12.26
2023-03-23T07:12:29.404Z,12.30
2023-03-23T07:13:30.131Z,12.30
2023-03-23T07:14:30.840Z,12.33
2023-03-23T07:15:31.552Z,12.34
2023-03-23T07:16:32.266Z,12.37
2023-03-23T07:17:32.987Z,12.34
2023-03-23T07:18:33.725Z,12.37
2023-03-23T07:19:34.440Z,12.38
2023-03-23T07:20:35.149Z,12.37
2023-03-23T07:21:35.866Z,12.40
2023-03-23T07:22:36.590Z,12.38
2023-03-23T07:23:37.322Z,12.41
2023-03-23T07:24:38.023Z,12.40
2023-03-23T07:25:38.719Z,12.41
2023-03-23T07:26:39.419Z,12.44
2023-03-23T07:27:40.138Z,12.49
2023-03-23T07:28:40.852Z,12.49
2023-03-23T07:29:41.575Z,12.54
2023-03-23T07:30:42.298Z,12.54
2023-03-23T07:31:42.983Z,12.61
2023-03-23T07:32:43.688Z,12.61
2023-03-23T07:33:44.408Z,12.66
2023-03-23T07:34:45.133Z,12.69
2023-03-23T07:35:45.860Z,12.70
2023-03-23T07:36:46.536Z,12.74
2023-03-23T07:37:47.425Z,12.71
2023-03-23T07:38:48.123Z,12.74
2023-03-23T07:39:48.832Z,12.73
2023-03-23T07:40:49.531Z,12.73
2023-03-23T07:41:50.241Z,12.73
2023-03-23T07:42:50.951Z,12.76
2023-03-23T07:43:51.680Z,12.79
2023-03-23T07:44:52.362Z,12.77
2023-03-23T07:45:53.081Z,12.79
2023-03-23T07:46:53.783Z,12.79
2023-03-23T07:47:54.485Z,12.79
2023-03-23T07:48:55.241Z,12.81
2023-03-23T07:49:55.961Z,12.85
2023-03-23T07:50:56.664Z,12.81
2023-03-23T07:51:57.364Z,12.85
2023-03-23T07:52:58.092Z,12.87
2023-03-23T07:53:58.827Z,12.87
2023-03-23T07:54:59.529Z,12.89
2023-03-23T07:56:00.250Z,12.87
2023-03-23T07:57:00.946Z,12.89
2023-03-23T07:58:01.663Z,12.91
2023-03-23T07:59:02.411Z,12.88
2023-03-23T08:00:03.145Z,12.89
2023-03-23T08:01:03.835Z,12.92
2023-03-23T08:02:04.527Z,12.92
2023-03-23T08:03:05.242Z,12.91
2023-03-23T08:04:05.959Z,12.92
2023-03-23T08:05:06.829Z,12.94
2023-03-23T08:06:07.539Z,12.96
2023-03-23T08:08:09.102Z,12.95
2023-03-23T08:09:09.848Z,12.96
2023-03-23T08:10:10.651Z,12.96
2023-03-23T08:11:11.499Z,12.99
2023-03-23T08:12:12.303Z,12.98
2023-03-23T08:13:13.043Z,12.99
2023-03-23T08:14:16.717Z,13.01
2023-03-23T08:15:14.806Z,13.04
2023-03-23T08:16:15.511Z,13.09
2023-03-23T08:17:16.224Z,13.06
2023-03-23T08:18:16.911Z,13.09
2023-03-23T08:19:17.626Z,13.07
2023-03-23T08:20:18.334Z,13.12
2023-03-23T08:21:19.052Z,13.10
2023-03-23T08:22:19.766Z,13.09
2023-03-23T08:23:20.447Z,13.12
2023-03-23T08:24:21.183Z,13.13
2023-03-23T08:25:21.897Z,13.13
2023-03-23T08:26:22.608Z,13.13
2023-03-23T08:27:23.312Z,13.14
2023-03-23T08:28:24.011Z,13.14
2023-03-23T08:29:24.734Z,13.16
2023-03-23T08:30:25.442Z,13.13
2023-03-23T08:31:26.163Z,13.16
2023-03-23T08:32:26.855Z,13.16
2023-03-23T08:33:27.579Z,13.19
2023-03-23T08:34:28.297Z,13.19
2023-03-23T08:35:29.014Z,13.24
2023-03-23T08:36:29.708Z,13.25
2023-03-23T08:37:30.421Z,13.22
2023-03-23T08:38:31.120Z,13.27
2023-03-23T08:39:31.899Z,13.27
2023-03-23T08:40:32.607Z,13.24
2023-03-23T08:41:33.316Z,13.28
2023-03-23T08:42:34.045Z,13.28
2023-03-23T08:43:34.716Z,13.29
2023-03-23T08:44:35.430Z,13.29
2023-03-23T08:45:36.135Z,13.29
2023-03-23T08:46:36.849Z,13.31
2023-03-23T08:47:37.561Z,13.31
2023-03-23T08:48:38.283Z,13.31
2023-03-23T08:49:39.037Z,13.29
2023-03-23T08:50:39.739Z,13.29
2023-03-23T08:51:40.456Z,13.32
2023-03-23T08:52:41.151Z,13.35
2023-03-23T08:53:41.891Z,13.36
2023-03-23T08:54:42.602Z,13.36
2023-03-23T08:55:43.553Z,13.39
2023-03-23T08:56:43.863Z,13.38
2023-03-23T08:57:44.608Z,13.38
2023-03-23T08:58:45.325Z,13.41
2023-03-23T08:59:46.147Z,13.43
2023-03-23T09:00:49.242Z,13.46
2023-03-23T09:01:47.871Z,13.46
2023-03-23T09:02:48.831Z,13.47
2023-03-23T09:03:49.551Z,13.47
2023-03-23T09:04:50.260Z,13.53
2023-03-23T09:05:50.975Z,13.53
2023-03-23T09:06:51.684Z,13.55
2023-03-23T09:07:52.396Z,13.54
2023-03-23T09:08:53.110Z,13.53
2023-03-23T09:09:53.886Z,13.55
2023-03-23T09:10:54.600Z,13.55
2023-03-23T09:11:55.309Z,13.57
2023-03-23T09:12:56.058Z,13.57
2023-03-23T09:13:56.776Z,13.63
2023-03-23T09:14:57.480Z,13.62
2023-03-23T09:15:58.462Z,13.63
2023-03-23T09:16:58.778Z,13.61
2023-03-23T09:18:00.578Z,13.62
2023-03-23T09:19:00.282Z,13.65
2023-03-23T09:20:00.993Z,13.63
2023-03-23T09:21:01.716Z,13.63
2023-03-23T09:22:02.414Z,13.65
2023-03-23T09:23:03.129Z,13.62
2023-03-23T09:24:03.860Z,13.65
2023-03-23T09:25:05.789Z,13.65
2023-03-23T09:26:05.456Z,13.63
2023-03-23T09:27:06.155Z,13.66
2023-03-23T09:28:06.878Z,13.71
2023-03-23T09:29:07.587Z,13.73
2023-03-23T09:30:08.295Z,13.72
2023-03-23T09:31:08.997Z,13.75
2023-03-23T09:32:09.747Z,13.73
2023-03-23T09:33:10.463Z,13.75
2023-03-23T09:34:11.188Z,13.79
2023-03-23T09:35:11.891Z,13.80
2023-03-23T09:36:12.604Z,13.81
2023-03-23T09:37:13.302Z,13.83
2023-03-23T09:38:14.020Z,13.81
2023-03-23T09:39:14.732Z,13.80
2023-03-23T09:40:15.443Z,13.80
2023-03-23T09:41:16.162Z,13.79
2023-03-23T09:42:16.859Z,13.81
2023-03-23T09:43:17.579Z,13.84
2023-03-23T09:44:18.339Z,13.81
2023-03-23T09:45:19.089Z,13.81
2023-03-23T09:46:19.779Z,13.84
2023-03-23T09:47:20.489Z,13.84
2023-03-23T09:48:21.232Z,13.87
2023-03-23T09:49:22.088Z,13.93
2023-03-23T09:50:22.786Z,13.90
2023-03-23T09:51:23.538Z,13.98
2023-03-23T09:52:24.233Z,13.98
2023-03-23T09:53:24.928Z,14.01
2023-03-23T09:54:25.635Z,14.02
2023-03-23T09:55:26.378Z,14.05
2023-03-23T09:56:27.075Z,14.04
2023-03-23T09:57:27.834Z,14.04
2023-03-23T09:58:28.550Z,14.06
2023-03-23T09:59:29.295Z,14.04
2023-03-23T10:00:30.036Z,14.06
2023-03-23T10:01:30.765Z,14.05
2023-03-23T10:02:31.487Z,14.04
2023-03-23T10:03:32.211Z,14.06
2023-03-23T10:04:32.941Z,14.06
2023-03-23T10:05:33.645Z,14.06
2023-03-23T10:06:35.152Z,14.05
2023-03-23T10:07:35.328Z,14.02
2023-03-23T10:08:37.800Z,14.06
2023-03-23T10:09:37.037Z,14.05
2023-03-23T10:10:37.729Z,14.06
2023-03-23T10:11:38.438Z,14.04
2023-03-23T10:12:39.145Z,14.02
2023-03-23T10:13:39.878Z,14.02
2023-03-23T10:14:40.595Z,14.05
2023-03-23T10:15:41.435Z,13.94
2023-03-23T10:16:42.240Z,13.98
2023-03-23T10:17:43.217Z,13.98
2023-03-23T10:18:43.932Z,13.94
2023-03-23T10:19:44.640Z,13.96
2023-03-23T10:20:45.354Z,13.98
2023-03-23T10:21:46.052Z,13.91
2023-03-23T10:22:46.761Z,13.93
2023-03-23T10:23:47.475Z,13.98
2023-03-23T10:24:48.179Z,13.94
2023-03-23T10:25:48.888Z,13.98
2023-03-23T10:26:49.586Z,14.01
2023-03-23T10:27:50.316Z,14.01
2023-03-23T10:28:51.065Z,14.01
2023-03-23T10:29:51.772Z,14.05
2023-03-23T10:30:52.480Z,14.04
2023-03-23T10:31:53.196Z,14.05
2023-03-23T10:32:53.895Z,14.05
2023-03-23T10:33:54.612Z,14.06
2023-03-23T10:34:55.332Z,14.08
2023-03-23T10:35:56.052Z,14.06
2023-03-23T10:36:56.742Z,14.11
2023-03-23T10:37:57.474Z,14.11
2023-03-23T10:38:58.202Z,14.08
2023-03-23T10:39:58.915Z,14.09
2023-03-23T10:40:59.626Z,14.09
2023-03-23T10:42:00.330Z,14.12
2023-03-23T10:43:01.031Z,14.11
2023-03-23T10:44:01.752Z,14.16
2023-03-23T10:45:02.476Z,14.19
2023-03-23T10:46:03.510Z,14.13
2023-03-23T10:47:03.797Z,14.16
2023-03-23T10:48:04.551Z,14.12
2023-03-23T10:49:05.280Z,14.16
2023-03-23T10:50:05.984Z,14.12
2023-03-23T10:51:06.690Z,14.12
2023-03-23T10:52:07.388Z,14.11
2023-03-23T10:53:08.109Z,14.08
2023-03-23T10:54:10.727Z,14.08
2023-03-23T10:55:09.438Z,14.06
2023-03-23T10:56:10.154Z,14.06
2023-03-23T10:57:10.984Z,14.04
2023-03-23T10:58:11.671Z,14.02
2023-03-23T10:59:12.392Z,14.01
2023-03-23T11:00:13.159Z,13.98
2023-03-23T11:01:13.872Z,13.98
2023-03-23T11:02:21.035Z,13.96
2023-03-23T11:03:15.594Z,13.96
2023-03-23T11:04:16.312Z,13.93
2023-03-23T11:06:17.583Z,13.94
2023-03-23T11:07:18.316Z,13.96
2023-03-23T11:08:19.011Z,13.98
2023-03-23T11:09:19.744Z,13.96
2023-03-23T11:10:20.448Z,13.98
2023-03-23T11:11:21.172Z,13.99
2023-03-23T11:12:21.889Z,14.01
2023-03-23T11:13:22.606Z,14.05
2023-03-23T11:14:23.344Z,14.04
2023-03-23T11:15:24.084Z,14.08
2023-03-23T11:16:24.793Z,14.11
2023-03-23T11:17:25.544Z,14.13
2023-03-23T11:18:26.247Z,14.16
2023-03-23T11:19:26.961Z,14.19
2023-03-23T11:20:27.667Z,14.20
2023-03-23T11:21:28.413Z,14.23
2023-03-23T11:22:29.134Z,14.24
2023-03-23T11:23:29.827Z,14.30
2023-03-23T11:24:30.551Z,14.31
2023-03-23T11:25:31.271Z,14.31
2023-03-23T11:26:31.973Z,14.34
2023-03-23T11:27:32.678Z,14.35
2023-03-23T11:28:33.406Z,14.35
2023-03-23T11:29:34.148Z,14.39
2023-03-23T11:30:34.985Z,14.39
2023-03-23T11:31:35.663Z,14.39
2023-03-23T11:32:36.401Z,14.39
2023-03-23T11:33:37.120Z,14.42
2023-03-23T11:34:37.885Z,14.46
2023-03-23T11:35:38.622Z,14.49
2023-03-23T11:36:39.319Z,14.53
2023-03-23T11:39:19.920Z,14.60
2023-03-23T11:40:21.777Z,14.61
2023-03-23T11:41:22.541Z,14.69
2023-03-23T11:42:23.253Z,14.75
2023-03-23T11:43:23.961Z,14.78
2023-03-23T11:44:24.683Z,14.87
2023-03-23T11:45:25.414Z,14.87
2023-03-23T11:46:26.105Z,14.98
2023-03-23T11:47:26.822Z,14.98
2023-03-23T11:48:27.508Z,15.00
2023-03-23T11:49:30.168Z,15.01
2023-03-23T11:50:28.849Z,15.05
2023-03-23T11:51:29.564Z,15.13
2023-03-23T11:52:30.261Z,15.11
2023-03-23T11:53:30.985Z,15.15
2023-03-23T11:54:31.718Z,15.15
2023-03-23T11:55:32.474Z,15.12
2023-03-23T11:56:33.138Z,15.07
2023-03-23T11:57:33.845Z,15.04
2023-03-23T11:58:34.532Z,15.01
2023-03-23T11:59:35.263Z,14.97
2023-03-23T12:00:36.003Z,14.94
2023-03-23T12:01:36.696Z,14.86
2023-03-23T12:02:37.706Z,14.85
2023-03-23T12:03:38.422Z,14.85
2023-03-23T12:04:39.192Z,14.85
2023-03-23T12:05:39.876Z,14.87
2023-03-23T12:06:40.596Z,14.87
2023-03-23T12:07:41.308Z,14.90
2023-03-23T12:08:42.010Z,14.87
2023-03-23T12:09:43.423Z,14.90
2023-03-23T12:11:44.049Z,14.87
2023-03-23T12:12:44.759Z,14.90
2023-03-23T12:13:49.809Z,14.93
2023-03-23T12:14:45.949Z,14.93
2023-03-23T12:15:46.721Z,14.94
2023-03-23T12:16:47.411Z,14.97
2023-03-23T12:17:48.120Z,14.91
2023-03-23T12:18:48.845Z,14.95
2023-03-23T12:19:49.549Z,14.95
2023-03-23T12:20:50.253Z,14.94
2023-03-23T12:21:50.968Z,14.90
2023-03-23T12:22:51.693Z,14.93
2023-03-23T12:23:52.429Z,14.95
2023-03-23T12:24:53.274Z,15.00
2023-03-23T12:25:53.965Z,14.98
2023-03-23T12:26:54.679Z,15.04
2023-03-23T12:27:55.373Z,15.03
2023-03-23T12:28:56.421Z,15.03
2023-03-23T12:29:57.178Z,15.05
2023-03-23T12:30:57.892Z,15.07
2023-03-23T12:31:58.594Z,15.07
2023-03-23T12:32:59.291Z,15.07
2023-03-23T12:34:00.024Z,15.13
2023-03-23T12:35:00.771Z,15.16
2023-03-23T12:36:01.508Z,15.11
2023-03-23T12:37:02.199Z,15.16
2023-03-23T12:38:02.901Z,15.15
2023-03-23T12:39:03.630Z,15.15
2023-03-23T12:40:04.342Z,15.13
2023-03-23T12:41:05.067Z,15.16
2023-03-23T12:42:05.771Z,15.16
2023-03-23T12:43:06.494Z,15.16
2023-03-23T12:44:07.561Z,15.13
2023-03-23T12:45:07.677Z,15.07
2023-03-23T12:46:08.396Z,15.04
2023-03-23T12:47:09.118Z,15.07
2023-03-23T12:48:09.831Z,15.11
2023-03-23T12:49:10.741Z,15.05
2023-03-23T12:50:11.414Z,15.05
2023-03-23T12:51:12.108Z,15.07
2023-03-23T12:52:12.821Z,15.05
2023-03-23T12:53:13.578Z,15.04
2023-03-23T12:54:14.300Z,15.01
2023-03-23T12:55:15.003Z,15.05
2023-03-23T12:56:15.703Z,15.04
2023-03-23T12:57:16.409Z,15.04
2023-03-23T12:58:17.170Z,15.01
2023-03-23T12:59:17.869Z,15.00
2023-03-23T13:00:18.579Z,14.95
2023-03-23T13:01:19.280Z,14.97
2023-03-23T13:02:20.054Z,14.93
2023-03-23T13:03:20.760Z,14.95
2023-03-23T13:04:21.473Z,14.97
2023-03-23T13:05:22.172Z,14.90
2023-03-23T13:06:22.886Z,14.90